createdAt,value
2023-01-19T00:01:06.663Z,0.93
2023-01-19T00:03:55.137Z,0.95
2023-01-19T00:06:43.634Z,0.89
2023-01-19T00:09:33.898Z,0.98
2023-01-19T00:12:22.409Z,0.89
2023-01-19T00:15:12.014Z,0.94
2023-01-19T00:18:00.408Z,0.99
2023-01-19T00:20:49.620Z,0.96
2023-01-19T00:23:38.097Z,0.91
2023-01-19T00:26:28.080Z,1.01
2023-01-19T00:29:16.565Z,0.87
2023-01-19T00:32:06.573Z,0.79
2023-01-19T00:34:55.095Z,0.70
2023-01-19T00:37:45.964Z,0.66
2023-01-19T00:40:34.442Z,0.64
2023-01-19T00:43:24.386Z,0.47
2023-01-19T00:46:13.271Z,0.58
2023-01-19T00:49:01.753Z,0.37
2023-01-19T00:51:50.235Z,0.48
2023-01-19T00:54:38.777Z,0.39
2023-01-19T00:57:29.485Z,0.45
2023-01-19T01:00:20.898Z,0.43
2023-01-19T01:03:09.402Z,0.41
2023-01-19T01:05:57.900Z,0.41
2023-01-19T01:08:46.354Z,0.51
2023-01-19T01:11:34.870Z,0.57
2023-01-19T01:14:23.691Z,0.33
2023-01-19T01:17:14.333Z,0.62
2023-01-19T01:20:04.858Z,0.45
2023-01-19T01:22:57.633Z,0.62
2023-01-19T01:25:46.629Z,0.62
2023-01-19T01:28:35.142Z,0.53
2023-01-19T01:31:23.626Z,0.73
2023-01-19T01:34:13.457Z,0.68
2023-01-19T01:37:01.915Z,0.83
2023-01-19T01:39:50.343Z,0.92
2023-01-19T01:42:40.340Z,0.91
2023-01-19T01:45:32.819Z,0.91
2023-01-19T01:48:24.557Z,0.68
2023-01-19T01:51:25.365Z,0.88
2023-01-19T01:54:17.790Z,0.87
2023-01-19T01:57:12.192Z,0.93
2023-01-19T02:00:00.686Z,1.05
2023-01-19T02:02:51.496Z,0.96
2023-01-19T02:05:39.983Z,1.10
2023-01-19T02:08:50.979Z,1.17
2023-01-19T02:11:57.504Z,1.23
2023-01-19T02:14:45.962Z,1.25
2023-01-19T02:17:34.705Z,1.22
2023-01-19T02:20:25.396Z,1.15
2023-01-19T02:23:18.302Z,1.12
2023-01-19T02:26:10.116Z,1.11
2023-01-19T02:29:00.466Z,1.06
2023-01-19T02:31:49.055Z,1.05
2023-01-19T02:34:37.590Z,0.90
2023-01-19T02:37:27.239Z,0.84
2023-01-19T02:40:16.775Z,1.04
2023-01-19T02:43:08.759Z,1.02
2023-01-19T02:45:57.280Z,1.04
2023-01-19T02:48:45.739Z,0.99
2023-01-19T02:51:34.505Z,1.03
2023-01-19T02:54:47.323Z,1.04
2023-01-19T02:57:44.050Z,1.05
2023-01-19T03:00:38.421Z,1.01
2023-01-19T03:03:30.763Z,1.00
2023-01-19T03:06:26.706Z,0.93
2023-01-19T03:09:22.553Z,1.06
2023-01-19T03:12:16.097Z,1.00
2023-01-19T03:15:13.247Z,0.97
2023-01-19T03:18:03.525Z,0.90
2023-01-19T03:20:54.185Z,0.88
2023-01-19T03:23:43.519Z,0.82
2023-01-19T03:26:33.628Z,0.47
2023-01-19T03:29:23.655Z,0.74
2023-01-19T03:32:13.882Z,0.67
2023-01-19T03:35:08.481Z,0.67
2023-01-19T03:37:58.175Z,0.47
2023-01-19T03:40:47.422Z,0.47
2023-01-19T03:43:36.980Z,0.54
2023-01-19T03:46:26.219Z,0.51
2023-01-19T03:49:15.072Z,0.51
2023-01-19T03:52:05.524Z,0.47
2023-01-19T03:54:53.991Z,0.46
2023-01-19T03:57:42.495Z,0.46
2023-01-19T04:00:31.359Z,0.21
2023-01-19T04:03:19.780Z,0.44
2023-01-19T04:06:09.333Z,0.48
2023-01-19T04:08:59.131Z,0.45
2023-01-19T04:11:47.652Z,0.44
2023-01-19T04:14:36.117Z,0.32
2023-01-19T04:17:24.566Z,0.44
2023-01-19T04:20:13.399Z,0.46
2023-01-19T04:23:02.937Z,0.48
2023-01-19T04:25:58.330Z,0.46
2023-01-19T04:28:46.964Z,0.48
2023-01-19T04:31:36.887Z,-0.59
2023-01-19T04:34:25.487Z,0.46
2023-01-19T04:37:14.168Z,0.44
2023-01-19T04:40:02.779Z,0.45
2023-01-19T04:42:52.663Z,0.57
2023-01-19T04:45:41.172Z,0.56
2023-01-19T04:48:29.628Z,0.52
2023-01-19T04:51:18.103Z,0.44
2023-01-19T04:54:06.897Z,0.41
2023-01-19T04:56:55.419Z,0.42
2023-01-19T04:59:45.359Z,0.39
2023-01-19T05:02:33.831Z,0.40
2023-01-19T05:05:22.522Z,0.40
2023-01-19T05:08:10.948Z,0.43
2023-01-19T05:10:59.918Z,0.32
2023-01-19T05:13:50.838Z,0.47
2023-01-19T05:16:40.790Z,0.53
2023-01-19T05:19:29.238Z,0.47
2023-01-19T05:22:18.057Z,0.61
2023-01-19T05:25:08.718Z,0.57
2023-01-19T05:27:57.269Z,0.56
2023-01-19T05:30:45.730Z,0.64
2023-01-19T05:33:35.647Z,0.66
2023-01-19T05:36:24.079Z,0.68
2023-01-19T05:39:12.562Z,0.72
2023-01-19T05:42:01.069Z,0.73
2023-01-19T05:44:49.539Z,0.90
2023-01-19T05:47:38.353Z,0.84
2023-01-19T05:50:28.354Z,0.86
2023-01-19T05:53:17.145Z,0.90
2023-01-19T05:56:08.582Z,0.69
2023-01-19T05:58:57.055Z,0.63
2023-01-19T06:01:45.559Z,0.81
2023-01-19T06:04:34.120Z,0.76
2023-01-19T06:07:24.582Z,0.57
2023-01-19T06:10:13.931Z,0.69
2023-01-19T06:13:02.685Z,0.63
2023-01-19T06:15:57.832Z,0.68
2023-01-19T06:18:46.395Z,0.59
2023-01-19T06:21:35.291Z,0.64
2023-01-19T06:24:25.230Z,0.52
2023-01-19T06:27:13.811Z,0.58
2023-01-19T06:30:02.230Z,0.53
2023-01-19T06:32:50.754Z,0.43
2023-01-19T06:35:39.229Z,-0.23
2023-01-19T06:38:28.929Z,0.52
2023-01-19T06:41:18.780Z,0.57
2023-01-19T06:44:08.063Z,0.57
2023-01-19T06:47:14.595Z,0.62
2023-01-19T06:50:04.752Z,0.74
2023-01-19T06:52:53.416Z,0.61
2023-01-19T06:55:41.907Z,0.91
2023-01-19T06:58:34.750Z,0.90
2023-01-19T07:01:23.335Z,0.95
2023-01-19T07:04:14.210Z,0.96
2023-01-19T07:07:02.682Z,1.07
2023-01-19T07:09:53.801Z,1.27
2023-01-19T07:12:44.022Z,1.07
2023-01-19T07:15:33.944Z,0.91
2023-01-19T07:18:22.412Z,1.13
2023-01-19T07:21:11.080Z,1.11
2023-01-19T07:23:59.599Z,1.13
2023-01-19T07:26:48.847Z,1.16
2023-01-19T07:29:37.292Z,1.23
2023-01-19T07:32:27.382Z,1.20
2023-01-19T07:35:15.903Z,1.14
2023-01-19T07:38:04.544Z,1.29
2023-01-19T07:40:53.008Z,1.38
2023-01-19T07:43:41.667Z,1.39
2023-01-19T07:46:30.134Z,1.46
2023-01-19T07:49:20.632Z,1.56
2023-01-19T07:52:09.445Z,1.62
2023-01-19T07:54:59.157Z,1.64
2023-01-19T07:57:50.960Z,1.66
2023-01-19T08:00:39.629Z,1.62
2023-01-19T08:03:28.145Z,1.60
2023-01-19T08:06:20.790Z,1.64
2023-01-19T08:09:10.002Z,1.61
2023-01-19T08:11:58.500Z,1.72
2023-01-19T08:14:47.063Z,1.64
2023-01-19T08:17:35.579Z,1.63
2023-01-19T08:20:25.351Z,1.72
2023-01-19T08:23:15.228Z,1.59
2023-01-19T08:26:03.910Z,1.66
2023-01-19T08:28:52.374Z,1.68
2023-01-19T08:31:41.871Z,1.72
2023-01-19T08:34:31.967Z,1.70
2023-01-19T08:37:20.459Z,1.66
2023-01-19T08:40:12.122Z,1.56
2023-01-19T08:43:03.558Z,1.72
2023-01-19T08:45:53.407Z,1.78
2023-01-19T08:48:41.903Z,1.96
2023-01-19T08:51:30.360Z,1.90
2023-01-19T08:54:20.188Z,1.93
2023-01-19T08:57:10.216Z,1.87
2023-01-19T08:59:58.719Z,1.91
2023-01-19T09:02:47.357Z,1.88
2023-01-19T09:05:38.692Z,2.04
2023-01-19T09:08:27.253Z,2.10
2023-01-19T09:11:17.179Z,2.08
2023-01-19T09:14:07.008Z,2.30
2023-01-19T09:16:56.159Z,2.48
2023-01-19T09:19:44.784Z,2.51
2023-01-19T09:22:33.384Z,2.74
2023-01-19T09:25:21.886Z,2.59
2023-01-19T09:28:11.864Z,2.59
2023-01-19T09:31:05.933Z,2.59
2023-01-19T09:33:54.654Z,2.52
2023-01-19T09:36:43.143Z,2.37
2023-01-19T09:39:31.746Z,2.81
2023-01-19T09:42:25.303Z,2.99
2023-01-19T09:45:17.628Z,3.22
2023-01-19T09:48:19.621Z,3.15
2023-01-19T09:51:11.658Z,3.05
2023-01-19T09:54:13.086Z,2.97
2023-01-19T09:57:01.760Z,3.20
2023-01-19T09:59:51.420Z,3.19
2023-01-19T10:02:44.124Z,3.27
2023-01-19T10:05:39.692Z,3.27
2023-01-19T10:08:35.148Z,3.16
2023-01-19T10:11:41.865Z,3.11
2023-01-19T10:14:37.965Z,2.96
2023-01-19T10:17:36.576Z,2.87
2023-01-19T10:20:29.664Z,2.83
2023-01-19T10:23:25.848Z,2.79
2023-01-19T10:26:17.783Z,2.76
2023-01-19T10:29:10.905Z,2.69
2023-01-19T10:32:07.943Z,2.61
2023-01-19T10:34:58.073Z,2.51
2023-01-19T10:37:46.623Z,2.50
2023-01-19T10:40:40.634Z,2.35
2023-01-19T10:43:41.503Z,2.33
2023-01-19T10:46:35.864Z,2.19
2023-01-19T10:49:26.949Z,2.12
2023-01-19T10:52:25.894Z,2.06
2023-01-19T10:55:25.707Z,2.07
2023-01-19T10:58:30.075Z,1.99
2023-01-19T11:01:22.764Z,1.96
2023-01-19T11:04:22.733Z,2.06
2023-01-19T11:07:16.419Z,1.98
2023-01-19T11:10:22.502Z,2.07
2023-01-19T11:13:15.650Z,1.82
2023-01-19T11:16:10.410Z,2.12
2023-01-19T11:19:02.022Z,2.11
2023-01-19T11:21:50.578Z,2.13
2023-01-19T11:24:40.219Z,2.21
2023-01-19T11:27:29.155Z,2.19
2023-01-19T11:30:20.684Z,2.32
2023-01-19T11:33:25.088Z,1.61
2023-01-19T11:36:17.183Z,2.39
2023-01-19T11:39:23.540Z,2.46
2023-01-19T11:42:13.829Z,2.37
2023-01-19T11:45:06.227Z,2.49
2023-01-19T11:47:54.690Z,2.45
2023-01-19T11:50:45.175Z,2.47
2023-01-19T11:53:35.047Z,2.54
2023-01-19T11:56:24.963Z,2.51
2023-01-19T11:59:14.020Z,2.59
2023-01-19T12:02:03.573Z,2.62
2023-01-19T12:04:52.947Z,2.73
2023-01-19T12:07:45.428Z,2.68
2023-01-19T12:10:37.166Z,2.63
2023-01-19T12:13:27.813Z,2.70
2023-01-19T12:16:21.555Z,2.71
2023-01-19T12:19:15.601Z,2.70
2023-01-19T12:22:05.411Z,2.80
2023-01-19T12:24:58.589Z,2.77
2023-01-19T12:27:48.151Z,2.82
2023-01-19T12:30:37.376Z,2.80
2023-01-19T12:33:36.955Z,2.85
2023-01-19T12:36:39.694Z,2.79
2023-01-19T12:39:28.149Z,2.82
2023-01-19T12:42:21.211Z,2.83
2023-01-19T12:45:14.752Z,2.86
2023-01-19T12:48:03.906Z,2.84
2023-01-19T12:50:52.478Z,2.81
2023-01-19T12:53:41.715Z,2.73
2023-01-19T12:56:31.532Z,2.78
2023-01-19T12:59:25.984Z,2.72
2023-01-19T13:02:41.835Z,2.83
2023-01-19T13:05:52.452Z,2.83
2023-01-19T13:09:01.824Z,2.88
2023-01-19T13:12:13.561Z,2.89
2023-01-19T13:15:34.614Z,2.87
2023-01-19T13:18:24.698Z,2.87
2023-01-19T13:21:13.862Z,2.91
2023-01-19T13:24:03.720Z,2.92
2023-01-19T13:26:57.423Z,2.87
2023-01-19T13:29:46.205Z,2.95
2023-01-19T13:32:36.057Z,2.92
2023-01-19T13:35:24.943Z,2.89
2023-01-19T13:38:14.640Z,2.86
2023-01-19T13:41:04.585Z,2.51
2023-01-19T13:43:58.130Z,2.74
2023-01-19T13:46:47.305Z,2.84
2023-01-19T13:49:39.867Z,2.90
2023-01-19T13:52:29.090Z,2.91
2023-01-19T13:55:19.105Z,3.06
2023-01-19T13:58:22.150Z,3.31
2023-01-19T14:01:22.024Z,3.41
2023-01-19T14:04:28.140Z,3.22
2023-01-19T14:07:26.075Z,3.45
2023-01-19T14:10:16.685Z,3.46
2023-01-19T14:13:07.150Z,3.41
2023-01-19T14:15:58.549Z,3.50
2023-01-19T14:18:47.218Z,3.46
2023-01-19T14:21:39.663Z,3.52
2023-01-19T14:24:32.158Z,3.54
2023-01-19T14:27:23.113Z,3.43
2023-01-19T14:30:21.911Z,3.33
2023-01-19T14:33:33.785Z,3.34
2023-01-19T14:36:30.541Z,3.30
2023-01-19T14:39:25.171Z,3.04
2023-01-19T14:42:23.859Z,3.15
2023-01-19T14:45:17.866Z,3.31
2023-01-19T14:48:13.269Z,3.17
2023-01-19T14:51:03.924Z,3.15
2023-01-19T14:53:55.632Z,3.09
2023-01-19T14:56:45.406Z,3.11
2023-01-19T14:59:35.269Z,3.16
2023-01-19T15:02:24.022Z,3.28
2023-01-19T15:05:12.643Z,3.23
2023-01-19T15:08:03.587Z,3.34
2023-01-19T15:10:52.451Z,3.36
2023-01-19T15:13:42.570Z,3.30
2023-01-19T15:16:34.666Z,3.34
2023-01-19T15:19:23.439Z,3.17
2023-01-19T15:22:14.688Z,3.24
2023-01-19T15:25:03.468Z,3.12
2023-01-19T15:27:52.046Z,3.24
2023-01-19T15:30:41.296Z,3.07
2023-01-19T15:33:31.436Z,3.08
2023-01-19T15:36:21.170Z,3.05
2023-01-19T15:39:10.607Z,3.05
2023-01-19T15:41:59.331Z,2.80
2023-01-19T15:44:48.237Z,2.76
2023-01-19T15:47:36.723Z,2.72
2023-01-19T15:50:27.189Z,2.61
2023-01-19T15:53:16.923Z,2.52
2023-01-19T15:56:05.894Z,2.48
2023-01-19T15:58:55.938Z,2.45
2023-01-19T16:01:44.717Z,2.34
2023-01-19T16:04:33.357Z,2.43
2023-01-19T16:07:23.506Z,2.48
2023-01-19T16:10:12.871Z,2.39
2023-01-19T16:13:01.648Z,2.40
2023-01-19T16:15:50.105Z,2.41
2023-01-19T16:18:39.086Z,2.09
2023-01-19T16:21:28.157Z,2.14
2023-01-19T16:24:18.239Z,2.11
2023-01-19T16:27:08.065Z,2.17
2023-01-19T16:29:57.106Z,2.11
2023-01-19T16:32:45.981Z,2.11
2023-01-19T16:35:34.461Z,2.04
2023-01-19T16:38:23.856Z,2.03
2023-01-19T16:41:13.861Z,1.94
2023-01-19T16:44:03.135Z,1.88
2023-01-19T16:46:52.265Z,1.89
2023-01-19T16:49:41.254Z,1.88
2023-01-19T16:52:30.108Z,1.73
2023-01-19T16:55:18.603Z,1.94
2023-01-19T16:58:08.428Z,1.81
2023-01-19T17:00:57.126Z,1.82
2023-01-19T17:03:46.184Z,1.76
2023-01-19T17:06:35.025Z,1.75
2023-01-19T17:09:23.794Z,1.72
2023-01-19T17:12:12.565Z,1.69
2023-01-19T17:15:04.091Z,1.66
2023-01-19T17:17:52.525Z,1.60
2023-01-19T17:20:41.344Z,1.29
2023-01-19T17:23:30.037Z,1.50
2023-01-19T17:26:19.564Z,1.36
2023-01-19T17:29:10.156Z,1.33
2023-01-19T17:32:00.230Z,1.20
2023-01-19T17:34:49.927Z,1.21
2023-01-19T17:37:38.610Z,1.10
2023-01-19T17:40:27.238Z,1.05
2023-01-19T17:43:16.045Z,1.00
2023-01-19T17:46:04.551Z,1.01
2023-01-19T17:48:56.385Z,1.10
2023-01-19T17:51:45.040Z,0.91
2023-01-19T17:54:33.908Z,0.99
2023-01-19T17:57:22.397Z,0.92
2023-01-19T18:00:12.760Z,0.83
2023-01-19T18:03:01.616Z,0.80
2023-01-19T18:05:55.431Z,0.77
2023-01-19T18:08:46.150Z,0.80
2023-01-19T18:11:34.827Z,0.76
2023-01-19T18:14:23.561Z,0.74
2023-01-19T18:17:12.037Z,0.71
2023-01-19T18:20:00.527Z,0.66
2023-01-19T18:22:50.478Z,0.61
2023-01-19T18:25:39.557Z,0.59
2023-01-19T18:28:28.333Z,0.59
2023-01-19T18:31:18.756Z,0.56
2023-01-19T18:34:07.251Z,0.50
2023-01-19T18:36:56.091Z,0.60
2023-01-19T18:39:46.333Z,0.59
2023-01-19T18:42:34.985Z,0.44
2023-01-19T18:45:23.475Z,0.56
2023-01-19T18:48:11.951Z,0.52
2023-01-19T18:51:03.310Z,0.41
2023-01-19T18:53:51.793Z,0.50
2023-01-19T18:56:41.625Z,0.60
2023-01-19T18:59:30.136Z,0.62
2023-01-19T19:02:18.698Z,0.61
2023-01-19T19:05:08.340Z,0.60
2023-01-19T19:07:56.842Z,0.53
2023-01-19T19:10:45.599Z,0.49
2023-01-19T19:13:35.608Z,0.51
2023-01-19T19:16:24.268Z,0.54
2023-01-19T19:19:15.350Z,0.59
2023-01-19T19:22:03.913Z,0.50
2023-01-19T19:24:52.551Z,0.66
2023-01-19T19:27:45.155Z,0.65
2023-01-19T19:30:37.704Z,0.66
2023-01-19T19:33:26.918Z,0.66
2023-01-19T19:36:15.502Z,0.72
2023-01-19T19:39:04.007Z,0.79
2023-01-19T19:41:52.648Z,0.78
2023-01-19T19:44:41.213Z,0.85
2023-01-19T19:47:31.655Z,0.95
2023-01-19T19:50:20.324Z,0.98
2023-01-19T19:53:08.992Z,0.67
2023-01-19T19:55:58.468Z,0.81
2023-01-19T19:58:46.921Z,0.72
2023-01-19T20:01:35.636Z,0.74
2023-01-19T20:04:25.732Z,0.89
2023-01-19T20:07:15.452Z,0.82
2023-01-19T20:10:06.282Z,0.95
2023-01-19T20:12:54.782Z,0.94
2023-01-19T20:15:43.306Z,0.87
2023-01-19T20:18:32.549Z,0.89
2023-01-19T20:21:24.720Z,0.92
2023-01-19T20:24:15.914Z,1.09
2023-01-19T20:27:04.562Z,1.07
2023-01-19T20:29:57.946Z,1.02
2023-01-19T20:32:46.665Z,1.04
2023-01-19T20:35:35.291Z,1.16
2023-01-19T20:38:25.168Z,1.11
2023-01-19T20:41:13.998Z,0.41
2023-01-19T20:44:02.676Z,1.15
2023-01-19T20:46:51.526Z,1.08
2023-01-19T20:49:40.180Z,1.16
2023-01-19T20:52:28.768Z,1.11
2023-01-19T20:55:18.724Z,1.09
2023-01-19T20:58:07.227Z,1.10
2023-01-19T21:00:55.823Z,1.08
2023-01-19T21:03:44.467Z,1.06
2023-01-19T21:06:33.058Z,1.04
2023-01-19T21:09:22.852Z,1.05
2023-01-19T21:12:13.347Z,1.02
2023-01-19T21:15:02.083Z,1.05
2023-01-19T21:17:50.579Z,0.98
2023-01-19T21:20:39.182Z,0.91
2023-01-19T21:23:28.257Z,1.09
2023-01-19T21:26:17.344Z,0.36
2023-01-19T21:29:07.297Z,1.11
2023-01-19T21:31:55.901Z,1.11
2023-01-19T21:34:44.759Z,0.96
2023-01-19T21:37:33.303Z,1.06
2023-01-19T21:40:21.740Z,0.88
2023-01-19T21:43:11.779Z,0.89
2023-01-19T21:46:11.214Z,1.04
2023-01-19T21:49:00.884Z,1.06
2023-01-19T21:51:50.456Z,1.07
2023-01-19T21:54:39.027Z,0.99
2023-01-19T21:57:27.595Z,1.07
2023-01-19T22:00:16.694Z,0.90
2023-01-19T22:03:06.541Z,1.00
2023-01-19T22:05:55.797Z,1.07
2023-01-19T22:08:46.508Z,0.99
2023-01-19T22:11:34.999Z,1.10
2023-01-19T22:14:23.535Z,1.05
2023-01-19T22:17:11.985Z,1.03
2023-01-19T22:20:01.837Z,1.02
2023-01-19T22:22:50.364Z,1.48
2023-01-19T22:25:38.865Z,1.41
2023-01-19T22:28:27.288Z,1.47
2023-01-19T22:31:17.860Z,1.40
2023-01-19T22:34:10.029Z,1.55
2023-01-19T22:37:00.010Z,1.41
2023-01-19T22:39:48.467Z,1.24
2023-01-19T22:42:36.985Z,1.16
2023-01-19T22:45:25.486Z,1.05
2023-01-19T22:48:14.043Z,0.38
2023-01-19T22:51:02.582Z,1.00
2023-01-19T22:53:53.000Z,0.89
2023-01-19T22:56:42.099Z,0.73
2023-01-19T22:59:30.728Z,0.89
2023-01-19T23:02:20.777Z,0.89
2023-01-19T23:05:09.863Z,0.83
2023-01-19T23:07:58.332Z,0.78
2023-01-19T23:10:48.142Z,0.52
2023-01-19T23:13:36.748Z,0.94
2023-01-19T23:16:25.368Z,0.97
2023-01-19T23:19:14.731Z,1.00
2023-01-19T23:22:03.177Z,0.81
2023-01-19T23:24:51.612Z,0.76
2023-01-19T23:27:41.416Z,0.77
2023-01-19T23:30:29.926Z,0.78
2023-01-19T23:33:18.412Z,0.74
2023-01-19T23:36:07.610Z,0.66
2023-01-19T23:38:57.423Z,0.71
2023-01-19T23:41:45.986Z,0.63
2023-01-19T23:44:36.064Z,0.63
2023-01-19T23:47:24.518Z,0.62
2023-01-19T23:50:13.675Z,0.55
2023-01-19T23:53:02.174Z,0.53
2023-01-19T23:55:50.671Z,0.46
2023-01-19T23:58:39.763Z,0.47
